首页
METAR-TAF:

METAR-TAF

机场 :

Valley, 威尔士

纬度: 53-15N, 经度: 004-32W, 海拔: 1米

当前天气观测

该预报发布于17分钟前的09:20 UTC
风速7节,风向东转东北
温度 7°C
湿度 87%
气压 992 hPa
能见度10公里或以上
少量云层高于2000英尺
散云层高于20000英尺

METAR: EGOV 220920Z 07007KT 9999 FEW020 SCT200 07/05 Q0992 NOSIG RMK BLU BLU

时间: 09:37 (09:37 UTC)

预报

该预报发布于1小时和50分钟前的07:47 UTC
预报有效从22日的 09点(UTC)到 22日的 18点(UTC)
风速8节,风向
能见度10公里或以上
散云层高于4000英尺
几率 30% :
短暂存在
从 22日的 11点(UTC)到 22日的 14点(UTC)
散云层高于2200英尺

TAF: EGOV 220747Z 2209/2218 09008KT 9999 SCT040 PROB30 TEMPO 2211/2214 SCT022

超过4000个机场的气象观测和天气预报(METAR&TAF报告)。

可查询的气象台以黄色和红色小点在地图上表示。

将鼠标移到小点上方,可查看气象台名称。

然后点击查看天气观测和预报。

如需切换地图:点击带黑十字的绿色按钮放大地图;点击带横线的绿色按钮缩小地图;或者点击绿色箭头查看邻近地区的地图。


METAR-TAF: